Time;durP1;ratioP1;P1;durP2;ratioP2;P2;SDS_P1;SDS_P2;PMS_P1;PMS_P2;Temp;Humidity;BMP_temperature;BMP_pressure;BME280_temperature;BME280_humidity;BME280_pressure;Samples;Min_cycle;Max_cycle;Signal;HPM_P1;HPM_P2
2021/11/02 00:01:22;;;;;;;52.25;22.75;;;;;;;9.60;100.00;100585.31;1778119;79;21042;-64
2021/11/02 00:03:49;;;;;;;47.33;22.15;;;;;;;9.63;100.00;100578.55;1778526;79;21033;-65
2021/11/02 00:06:15;;;;;;;49.50;22.15;;;;;;;9.65;100.00;100578.03;1760954;80;21014;-65
2021/11/02 00:08:43;;;;;;;45.00;20.35;;;;;;;9.66;100.00;100574.42;1759746;79;20987;-65
2021/11/02 00:11:10;;;;;;;46.73;20.75;;;;;;;9.64;100.00;100571.38;1765225;79;21108;-65
2021/11/02 00:13:42;;;;;;;45.83;20.92;;;;;;;9.63;100.00;100571.86;1761895;79;21616;-65
2021/11/02 00:16:14;;;;;;;42.23;20.57;;;;;;;9.62;100.00;100574.12;1742979;79;21443;-65
2021/11/02 00:18:51;;;;;;;43.87;19.48;;;;;;;9.59;100.00;100572.86;1815249;77;21084;-66
2021/11/02 00:21:11;;;;;;;42.17;21.20;;;;;;;9.61;100.00;100573.68;1799794;77;21139;-66
2021/11/02 00:23:38;;;;;;;50.30;20.82;;;;;;;9.66;100.00;100569.07;1809721;77;21111;-64
2021/11/02 00:26:07;;;;;;;35.88;17.27;;;;;;;9.66;100.00;100565.05;1811631;77;20984;-65
2021/11/02 00:28:35;;;;;;;50.48;21.10;;;;;;;9.67;100.00;100552.08;1816049;77;21005;-63
2021/11/02 00:31:02;;;;;;;44.20;19.62;;;;;;;9.63;100.00;100550.44;1811947;77;21097;-65
2021/11/02 00:33:28;;;;;;;36.42;18.70;;;;;;;9.64;100.00;100548.17;1813006;77;21047;-64
2021/11/02 00:35:56;;;;;;;43.85;19.27;;;;;;;9.67;100.00;100552.08;1799897;77;21088;-65
2021/11/02 00:38:24;;;;;;;50.45;20.77;;;;;;;9.69;100.00;100546.66;1818551;77;21105;-65
2021/11/02 00:40:51;;;;;;;39.70;20.12;;;;;;;9.68;100.00;100545.80;1814385;77;21045;-64
2021/11/02 00:43:18;;;;;;;41.55;20.62;;;;;;;9.67;100.00;100537.36;1805486;77;21006;-64
2021/11/02 00:45:44;;;;;;;38.67;19.50;;;;;;;9.70;100.00;100535.02;1817826;77;21050;-65
2021/11/02 00:48:13;;;;;;;42.83;19.60;;;;;;;9.74;100.00;100533.53;1812048;77;22332;-66
2021/11/02 00:50:44;;;;;;;37.38;19.45;;;;;;;9.80;100.00;100539.14;1813044;77;21094;-65
2021/11/02 00:53:11;;;;;;;41.00;20.37;;;;;;;9.81;100.00;100539.55;1809814;77;20977;-65
2021/11/02 00:55:38;;;;;;;39.78;19.20;;;;;;;9.81;100.00;100538.66;1807270;77;21393;-65
2021/11/02 00:58:06;;;;;;;38.40;19.37;;;;;;;9.78;100.00;100533.41;1810759;77;21067;-64
2021/11/02 01:00:34;;;;;;;36.42;18.67;;;;;;;9.73;100.00;100533.13;1806427;77;21154;-65
2021/11/02 01:03:03;;;;;;;44.00;21.17;;;;;;;9.74;100.00;100528.66;1811285;77;21020;-66
2021/11/02 01:05:31;;;;;;;44.60;20.12;;;;;;;9.73;100.00;100531.78;1804370;77;21018;-65
2021/11/02 01:07:58;;;;;;;33.30;17.67;;;;;;;9.77;100.00;100533.01;1812321;77;21022;-64
2021/11/02 01:10:25;;;;;;;40.80;18.60;;;;;;;9.77;100.00;100531.67;1801671;77;21141;-65
2021/11/02 01:12:52;;;;;;;37.63;18.20;;;;;;;9.68;100.00;100536.43;1811834;77;21119;-65
2021/11/02 01:15:23;;;;;;;32.50;17.30;;;;;;;9.60;100.00;100535.34;1806391;77;21021;-65
2021/11/02 01:17:52;;;;;;;32.80;16.87;;;;;;;9.59;100.00;100526.02;1815472;77;21045;-64
2021/11/02 01:20:19;;;;;;;32.17;16.32;;;;;;;9.52;100.00;100520.48;1820565;77;21093;-65
2021/11/02 01:22:46;;;;;;;39.33;19.07;;;;;;;9.40;100.00;100515.97;1805645;77;21015;-65
2021/11/02 01:25:14;;;;;;;33.35;17.37;;;;;;;9.35;100.00;100501.85;1818523;77;21120;-65
2021/11/02 01:27:42;;;;;;;41.70;17.07;;;;;;;9.29;100.00;100516.78;1814459;77;21024;-65
2021/11/02 01:30:11;;;;;;;36.30;16.23;;;;;;;9.24;100.00;100508.90;1817997;77;21010;-66
2021/11/02 01:32:39;;;;;;;36.35;16.37;;;;;;;9.23;100.00;100509.83;1808883;77;21067;-65
2021/11/02 01:35:08;;;;;;;37.73;16.75;;;;;;;9.22;100.00;100508.08;1814762;77;21061;-65
2021/11/02 01:37:39;;;;;;;34.13;15.23;;;;;;;9.23;100.00;100504.95;1807946;77;21045;-65
2021/11/02 01:40:08;;;;;;;39.38;16.20;;;;;;;9.26;100.00;100508.38;1816710;77;20994;-65
2021/11/02 01:42:37;;;;;;;33.78;15.40;;;;;;;9.23;100.00;100494.26;1811829;77;21021;-66
2021/11/02 01:45:07;;;;;;;34.63;15.43;;;;;;;9.22;100.00;100499.20;1813470;77;21010;-65
2021/11/02 01:47:36;;;;;;;26.52;15.08;;;;;;;9.20;100.00;100495.70;1811228;77;21459;-64
2021/11/02 01:50:04;;;;;;;33.13;16.75;;;;;;;9.19;100.00;100497.48;1776277;79;21028;-64
2021/11/02 01:52:34;;;;;;;33.13;15.38;;;;;;;9.19;100.00;100496.62;1814801;77;20930;-69
2021/11/02 01:55:02;;;;;;;37.33;16.02;;;;;;;9.18;100.00;100486.38;1810986;77;21551;-64
2021/11/02 01:57:30;;;;;;;44.38;16.30;;;;;;;9.16;100.00;100486.41;1815483;77;21167;-66
2021/11/02 01:59:57;;;;;;;43.90;17.48;;;;;;;9.15;100.00;100488.67;1805624;77;21054;-65
2021/11/02 02:02:52;;;;;;;30.72;16.02;;;;;;;9.15;100.00;100483.33;1815755;77;21818;-65
2021/11/02 02:05:54;;;;;;;38.23;15.78;;;;;;;9.14;100.00;100478.91;1808831;77;21030;-64
2021/11/02 02:08:37;;;;;;;45.10;17.17;;;;;;;9.09;100.00;100470.17;1808627;77;21097;-65
2021/11/02 02:11:25;;;;;;;34.67;16.30;;;;;;;9.08;100.00;100469.77;1806206;77;20991;-65
2021/11/02 02:14:14;;;;;;;37.50;15.68;;;;;;;9.05;100.00;100479.23;1821158;77;20913;-65
2021/11/02 02:16:45;;;;;;;26.15;14.45;;;;;;;9.03;100.00;100477.07;1810911;77;21119;-65
2021/11/02 02:19:43;;;;;;;36.45;15.48;;;;;;;9.02;100.00;100476.66;1804890;77;21030;-65
2021/11/02 02:22:47;;;;;;;33.90;15.28;;;;;;;9.00;100.00;100482.52;1812976;77;21018;-57
2021/11/02 02:25:47;;;;;;;44.27;15.80;;;;;;;8.99;100.00;100474.09;1808682;77;21117;-64
2021/11/02 02:28:31;;;;;;;37.20;15.72;;;;;;;8.98;100.00;100480.36;1809318;77;21567;-65
2021/11/02 02:31:06;;;;;;;32.80;13.90;;;;;;;8.94;100.00;100486.71;1826610;77;21097;-57
2021/11/02 02:33:42;;;;;;;36.15;15.50;;;;;;;8.92;100.00;100478.75;1811694;77;21037;-57
2021/11/02 02:36:10;;;;;;;30.62;15.13;;;;;;;8.92;100.00;100477.86;1818673;77;21532;-56
2021/11/02 02:38:40;;;;;;;30.75;14.53;;;;;;;8.93;100.00;100474.27;1792269;79;21351;-57
2021/11/02 02:41:07;;;;;;;35.68;15.78;;;;;;;8.96;100.00;100474.20;1812660;77;21073;-56
2021/11/02 02:43:35;;;;;;;28.27;14.05;;;;;;;8.99;100.00;100470.94;1808663;77;21486;-66
2021/11/02 02:46:02;;;;;;;27.45;14.00;;;;;;;9.07;100.00;100478.71;1823422;77;21102;-65
2021/11/02 02:48:29;;;;;;;23.75;14.10;;;;;;;9.10;100.00;100469.24;1815263;77;21018;-66
2021/11/02 02:50:57;;;;;;;37.25;14.07;;;;;;;9.15;100.00;100471.30;1821130;76;21018;-65
2021/11/02 02:53:24;;;;;;;37.78;14.93;;;;;;;9.19;100.00;100472.08;1817278;77;21066;-65
2021/11/02 02:55:54;;;;;;;28.20;14.68;;;;;;;9.18;100.00;100479.69;1823264;77;21097;-65
2021/11/02 02:58:23;;;;;;;26.87;15.18;;;;;;;9.17;100.00;100473.93;1812980;77;21084;-65
2021/11/02 03:00:50;;;;;;;30.62;14.15;;;;;;;9.22;100.00;100477.80;1818183;77;21582;-65
2021/11/02 03:03:18;;;;;;;26.15;13.13;;;;;;;9.28;100.00;100479.81;1816288;77;21023;-65
2021/11/02 03:05:45;;;;;;;23.02;12.43;;;;;;;9.35;100.00;100478.25;1812608;77;21000;-65
2021/11/02 03:08:12;;;;;;;27.67;13.53;;;;;;;9.41;100.00;100474.91;1809369;77;21864;-66
2021/11/02 03:10:39;;;;;;;24.82;13.30;;;;;;;9.47;100.00;100479.15;1813033;77;21033;-66
2021/11/02 03:13:10;;;;;;;23.67;11.97;;;;;;;9.54;100.00;100481.16;1789867;77;21023;-65
2021/11/02 03:15:52;;;;;;;19.70;11.45;;;;;;;9.66;100.00;100485.20;1824972;77;21187;-66
2021/11/02 03:49:13;;;;;;;20.72;11.80;;;;;;;10.17;100.00;100488.27;1825437;77;21133;-65
2021/11/02 03:54:38;;;;;;;24.23;12.95;;;;;;;10.22;100.00;100488.06;1792327;77;21468;-65
2021/11/02 03:57:10;;;;;;;22.35;13.28;;;;;;;10.26;100.00;100482.14;1803653;77;21052;-65
2021/11/02 05:13:55;;;;;;;16.62;9.70;;;;;;;9.69;100.00;100459.20;1739386;81;21044;-66
2021/11/02 05:46:54;;;;;;;17.95;9.93;;;;;;;10.03;100.00;100479.38;1814318;77;21014;-56
2021/11/02 05:49:24;;;;;;;19.02;10.15;;;;;;;10.17;100.00;100483.36;1799045;77;21038;-56
2021/11/02 05:57:22;;;;;;;17.23;9.45;;;;;;;10.41;100.00;100480.70;1818977;77;21038;-57
2021/11/02 05:59:59;;;;;;;15.35;9.85;;;;;;;10.48;100.00;100482.20;1820648;77;21276;-58
2021/11/02 06:02:34;;;;;;;14.00;8.53;;;;;;;10.55;100.00;100483.73;1813000;77;20939;-64
2021/11/02 06:07:35;;;;;;;15.58;9.38;;;;;;;10.70;100.00;100493.42;1817025;77;20926;-64
2021/11/02 06:27:49;;;;;;;15.60;8.95;;;;;;;11.45;100.00;100481.86;1812101;77;22278;-64
2021/11/02 06:30:10;;;;;;;15.40;8.80;;;;;;;11.69;100.00;100488.00;1819611;77;20941;-66
2021/11/02 06:32:41;;;;;;;16.60;8.50;;;;;;;11.89;99.44;100487.59;1818956;77;21443;-65
2021/11/02 06:35:30;;;;;;;13.38;8.63;;;;;;;12.02;98.07;100491.96;1816996;77;21684;-65
2021/11/02 06:53:55;;;;;;;12.25;8.13;;;;;;;12.48;93.71;100491.64;1816546;77;21049;-65
2021/11/02 07:15:28;;;;;;;17.52;9.08;;;;;;;13.18;89.97;100509.82;1822844;77;21023;-65
2021/11/02 07:17:02;;;;;;;11.65;7.83;;;;;;;13.41;89.24;100514.06;1816758;77;21034;-67
2021/11/02 07:19:13;;;;;;;13.45;7.92;;;;;;;13.57;88.61;100506.55;1816150;77;21102;-65
2021/11/02 07:24:38;;;;;;;13.18;8.70;;;;;;;13.82;86.79;100507.51;1822734;77;21563;-65
2021/11/02 08:46:17;;;;;;;17.50;11.28;;;;;;;13.48;83.36;100474.73;1818882;77;21626;-64
2021/11/02 08:48:32;;;;;;;19.37;12.07;;;;;;;13.55;83.46;100472.09;1807730;77;22031;-57
2021/11/02 08:51:02;;;;;;;19.02;11.38;;;;;;;13.61;83.21;100456.98;1780824;77;22704;-58
2021/11/02 08:53:29;;;;;;;17.15;11.90;;;;;;;13.66;83.00;100464.34;1815445;77;21295;-58
2021/11/02 08:55:57;;;;;;;18.60;12.03;;;;;;;13.69;83.01;100461.48;1814826;77;21039;-58
2021/11/02 08:58:26;;;;;;;17.95;11.22;;;;;;;13.70;82.65;100455.14;1808987;77;21047;-65
2021/11/02 09:00:57;;;;;;;17.70;11.18;;;;;;;13.72;82.90;100445.16;1813816;77;20944;-65
2021/11/02 09:03:31;;;;;;;19.80;10.78;;;;;;;13.78;82.81;100439.92;1811874;77;21105;-66
2021/11/02 09:06:05;;;;;;;17.48;11.25;;;;;;;13.85;82.55;100439.12;1818919;77;21549;-57
2021/11/02 09:08:43;;;;;;;17.15;10.90;;;;;;;13.94;82.37;100433.22;1819405;77;21114;-57
2021/11/02 09:11:17;;;;;;;16.02;11.03;;;;;;;14.06;81.92;100438.92;1791215;78;21539;-57
2021/11/02 09:13:52;;;;;;;17.70;10.97;;;;;;;14.13;80.82;100438.96;1786247;78;21094;-59
2021/11/02 09:16:24;;;;;;;15.53;11.15;;;;;;;14.13;80.82;100438.96;1792382;78;22989;-56
2021/11/02 09:18:53;;;;;;;16.55;10.30;;;;;;;14.14;80.42;100450.14;1824950;77;21035;-64
2021/11/02 09:21:23;;;;;;;15.53;10.63;;;;;;;14.13;80.42;100447.05;1822166;77;20959;-65
2021/11/02 09:23:53;;;;;;;13.60;10.00;;;;;;;14.11;79.87;100442.22;1820751;77;21067;-65
2021/11/02 09:26:20;;;;;;;17.37;10.95;;;;;;;14.06;79.76;100437.56;1819416;77;21514;-65
2021/11/02 09:28:49;;;;;;;19.23;11.80;;;;;;;14.02;80.07;100432.31;1828076;77;21181;-67
2021/11/02 09:31:24;;;;;;;17.32;12.03;;;;;;;14.01;80.12;100427.88;1823615;77;21082;-65
2021/11/02 09:33:50;;;;;;;19.35;11.85;;;;;;;14.03;80.04;100421.92;1767590;79;21643;-65
2021/11/02 09:36:23;;;;;;;20.43;12.30;;;;;;;14.08;79.89;100414.09;1811981;77;21035;-57
2021/11/02 09:38:58;;;;;;;20.23;13.53;;;;;;;14.11;79.91;100416.61;1828192;77;21103;-58
2021/11/02 09:41:55;;;;;;;18.12;12.63;;;;;;;14.18;80.05;100406.76;1827452;77;21135;-66
2021/11/02 09:44:52;;;;;;;20.20;12.00;;;;;;;14.28;79.58;100403.07;1792074;77;21090;-58
2021/11/02 09:47:48;;;;;;;20.80;12.40;;;;;;;14.35;78.86;100404.06;1813486;77;21089;-57
2021/11/02 09:50:40;;;;;;;18.37;12.05;;;;;;;14.39;78.59;100404.27;1812375;77;21120;-55
2021/11/02 09:53:33;;;;;;;17.65;12.25;;;;;;;14.39;77.96;100400.23;1824015;77;21035;-56
2021/11/02 09:56:25;;;;;;;19.05;12.28;;;;;;;14.36;78.16;100399.06;1816909;77;21131;-65
2021/11/02 09:59:06;;;;;;;18.35;12.47;;;;;;;14.39;78.59;100400.23;1817238;77;21117;-65
2021/11/02 10:02:03;;;;;;;20.82;12.23;;;;;;;14.49;78.82;100396.07;1818950;77;21055;-65
2021/11/02 10:05:19;;;;;;;19.50;13.22;;;;;;;14.57;78.77;100392.91;1802328;77;21058;-65
2021/11/02 10:08:25;;;;;;;21.20;12.47;;;;;;;14.60;78.55;100397.66;1813107;77;21090;-58
2021/11/02 10:11:27;;;;;;;17.80;11.93;;;;;;;14.65;78.60;100390.66;1764842;79;21591;-58
2021/11/02 10:14:27;;;;;;;18.57;12.80;;;;;;;14.76;78.34;100381.97;1765722;79;21581;-57
2021/11/02 10:17:25;;;;;;;16.77;11.50;;;;;;;14.84;77.97;100376.97;1766454;79;20956;-66
2021/11/02 10:20:04;;;;;;;19.60;12.68;;;;;;;14.85;77.04;100374.66;1756300;79;21111;-57
2021/11/02 10:23:19;;;;;;;24.75;12.65;;;;;;;14.81;76.82;100365.02;1755266;79;21092;-58
2021/11/02 10:26:27;;;;;;;21.25;13.25;;;;;;;14.74;76.56;100364.50;1748454;79;21765;-58
2021/11/02 10:29:19;;;;;;;19.92;13.10;;;;;;;14.66;76.31;100359.13;1748170;79;21052;-55
2021/11/02 10:32:06;;;;;;;16.95;11.75;;;;;;;14.55;76.56;100351.20;1751365;79;21040;-57
2021/11/02 10:34:54;;;;;;;17.62;11.65;;;;;;;14.50;76.88;100358.70;1754109;79;21378;-56
2021/11/02 10:38:02;;;;;;;18.67;11.28;;;;;;;14.49;76.91;100359.66;1759945;79;21099;-57
2021/11/02 10:40:36;;;;;;;23.52;13.72;;;;;;;14.44;77.12;100349.59;1763018;79;21293;-65
2021/11/02 10:43:26;;;;;;;19.42;13.40;;;;;;;14.41;77.17;100338.98;1753692;79;20945;-64
2021/11/02 10:45:59;;;;;;;16.05;11.80;;;;;;;14.37;77.26;100334.73;1756448;79;21054;-66
2021/11/02 10:48:47;;;;;;;16.77;11.85;;;;;;;14.34;77.29;100335.77;1749456;79;21631;-66
2021/11/02 10:51:32;;;;;;;18.52;12.53;;;;;;;14.33;77.38;100330.86;1754832;79;21039;-67
2021/11/02 10:54:18;;;;;;;19.15;12.18;;;;;;;14.30;77.43;100332.86;1732757;79;21100;-67
2021/11/02 10:57:25;;;;;;;17.25;11.40;;;;;;;14.27;77.54;100327.18;1768151;79;21482;-67
2021/11/02 10:59:52;;;;;;;17.50;12.05;;;;;;;14.18;77.22;100325.88;1762631;79;21458;-67
2021/11/02 11:02:28;;;;;;;16.32;11.50;;;;;;;14.05;77.66;100322.13;1759694;79;21037;-67
2021/11/02 11:04:56;;;;;;;17.85;12.75;;;;;;;13.93;77.95;100323.69;1754517;79;21172;-67
2021/11/02 11:07:28;;;;;;;16.25;11.57;;;;;;;13.84;78.48;100310.74;1750366;79;21130;-67
2021/11/02 11:09:55;;;;;;;15.40;10.98;;;;;;;13.72;78.79;100311.80;1757353;79;21584;-67
2021/11/02 11:12:23;;;;;;;17.87;11.48;;;;;;;13.57;79.38;100316.67;1752266;79;21072;-66
2021/11/02 11:14:54;;;;;;;17.77;12.25;;;;;;;13.51;80.20;100314.32;1758672;79;21534;-66
2021/11/02 11:17:28;;;;;;;14.10;10.43;;;;;;;13.53;80.80;100317.80;1762826;79;21504;-67
2021/11/02 11:20:13;;;;;;;17.98;11.08;;;;;;;13.56;80.91;100321.20;1810264;77;21081;-67
2021/11/02 11:22:45;;;;;;;15.45;10.98;;;;;;;13.63;81.04;100333.88;1813759;77;20931;-67
2021/11/02 11:25:31;;;;;;;17.48;11.75;;;;;;;13.71;81.17;100330.27;1815312;77;20849;-66
2021/11/02 11:27:58;;;;;;;15.35;10.90;;;;;;;13.79;81.19;100323.11;1814769;77;20948;-68
2021/11/02 11:30:33;;;;;;;16.42;10.98;;;;;;;13.88;81.10;100324.43;1808476;77;20948;-67
2021/11/02 11:33:06;;;;;;;15.20;10.55;;;;;;;13.94;80.94;100330.81;1813952;77;21537;-67
2021/11/02 11:35:37;;;;;;;15.32;10.20;;;;;;;13.97;80.83;100334.68;1812459;77;20928;-67
2021/11/02 11:38:05;;;;;;;19.10;11.05;;;;;;;13.97;80.86;100322.55;1811552;77;21361;-67
2021/11/02 11:40:39;;;;;;;14.65;10.50;;;;;;;13.96;80.89;100314.57;1811947;77;21513;-69
2021/11/02 11:43:07;;;;;;;15.20;10.30;;;;;;;13.94;80.90;100308.41;1806244;77;21952;-69
2021/11/02 11:45:41;;;;;;;15.55;10.75;;;;;;;13.89;81.15;100307.30;1807434;77;21376;-69
2021/11/02 11:48:26;;;;;;;14.85;10.40;;;;;;;13.87;81.48;100309.22;1816453;77;21149;-68
2021/11/02 11:50:55;;;;;;;16.48;10.82;;;;;;;13.86;81.58;100298.91;1806883;77;21052;-67
2021/11/02 11:53:23;;;;;;;15.93;10.50;;;;;;;13.86;81.73;100301.59;1812701;77;21136;-68
2021/11/02 11:56:04;;;;;;;14.23;10.40;;;;;;;13.88;82.03;100297.48;1812761;77;21132;-67
2021/11/02 11:58:31;;;;;;;13.80;10.00;;;;;;;13.93;82.33;100296.73;1812875;77;21101;-67
2021/11/02 12:01:11;;;;;;;15.25;9.25;;;;;;;13.96;82.24;100288.48;1806152;77;21678;-68
2021/11/02 12:03:53;;;;;;;14.58;9.23;;;;;;;13.99;82.39;100288.80;1779207;77;21973;-67
2021/11/02 12:06:23;;;;;;;14.13;9.60;;;;;;;14.00;82.36;100293.22;1807482;77;21014;-66
2021/11/02 12:09:02;;;;;;;14.18;9.60;;;;;;;13.94;82.30;100289.05;1798229;77;21074;-67
2021/11/02 12:11:32;;;;;;;13.65;9.55;;;;;;;13.88;82.52;100282.66;1821004;77;21257;-67
2021/11/02 12:14:08;;;;;;;12.95;9.13;;;;;;;13.80;82.59;100276.81;1819428;77;21054;-66
2021/11/02 12:16:42;;;;;;;13.13;9.65;;;;;;;13.67;83.02;100286.06;1813274;77;21106;-66
2021/11/02 12:19:28;;;;;;;14.03;10.35;;;;;;;13.64;83.41;100291.63;1814242;77;21133;-67
2021/11/02 12:22:02;;;;;;;;;;;;;;;13.63;83.77;100297.51;1776914;77;21093;-65
2021/11/02 12:24:35;;;;;;;17.87;11.12;;;;;;;13.65;83.97;100295.59;1816908;77;21798;-67
2021/11/02 12:27:16;;;;;;;14.00;9.43;;;;;;;13.62;84.16;100301.16;1815458;77;21442;-64
2021/11/02 12:29:44;;;;;;;12.33;9.68;;;;;;;13.57;84.54;100294.66;1759986;79;21337;-65
2021/11/02 12:32:12;;;;;;;16.12;10.98;;;;;;;13.52;84.93;100296.75;1792508;78;21054;-65
2021/11/02 12:35:12;;;;;;;15.68;10.48;;;;;;;13.49;85.31;100291.53;1816034;77;21129;-65
2021/11/02 12:37:55;;;;;;;15.20;10.20;;;;;;;13.50;85.69;100285.66;1816743;77;21109;-65
2021/11/02 12:40:31;;;;;;;15.72;10.63;;;;;;;13.49;86.15;100283.45;1818529;77;20952;-64
2021/11/02 12:42:58;;;;;;;19.07;10.00;;;;;;;13.49;86.42;100287.95;1815833;77;21590;-65
2021/11/02 12:45:28;;;;;;;16.82;10.50;;;;;;;13.48;86.73;100280.83;1810896;77;21062;-65
2021/11/02 12:47:59;;;;;;;14.40;9.55;;;;;;;13.48;87.00;100283.03;1814914;77;21150;-66
2021/11/02 12:50:35;;;;;;;16.00;10.75;;;;;;;13.49;87.14;100273.14;1811574;77;21503;-64
2021/11/02 12:53:00;;;;;;;14.93;10.32;;;;;;;13.50;87.22;100273.53;1813764;77;21006;-63
2021/11/02 12:55:31;;;;;;;17.95;10.75;;;;;;;13.51;87.35;100272.13;1787881;78;21177;-66
2021/11/02 12:58:04;;;;;;;19.05;11.15;;;;;;;13.58;87.48;100272.62;1819808;77;21091;-58
2021/11/02 13:00:31;;;;;;;18.85;10.38;;;;;;;13.61;87.75;100275.17;1817447;77;21088;-57
2021/11/02 13:03:06;;;;;;;16.70;10.78;;;;;;;13.66;87.71;100273.09;1816738;77;21118;-58
2021/11/02 13:05:36;;;;;;;17.98;10.85;;;;;;;13.70;87.72;100268.38;1754347;79;21481;-56
2021/11/02 13:08:12;;;;;;;19.80;10.58;;;;;;;13.76;87.72;100273.45;1752064;79;21182;-56
2021/11/02 13:10:41;;;;;;;16.50;10.50;;;;;;;13.81;87.62;100271.81;1753434;79;21171;-58
2021/11/02 13:13:14;;;;;;;16.00;10.43;;;;;;;13.83;87.60;100266.75;1755325;79;21127;-59
2021/11/02 13:15:58;;;;;;;19.87;11.28;;;;;;;13.88;87.57;100267.34;1751485;79;22961;-57
2021/11/02 13:18:37;;;;;;;14.95;10.78;;;;;;;13.91;87.50;100267.66;1751261;79;21089;-57
2021/11/02 13:21:22;;;;;;;15.98;10.95;;;;;;;13.92;87.61;100264.02;1747238;79;21326;-58
2021/11/02 13:24:13;;;;;;;18.12;11.00;;;;;;;13.92;87.59;100263.13;1750803;79;21122;-58
2021/11/02 13:26:52;;;;;;;15.03;10.82;;;;;;;13.90;87.84;100263.23;1757073;79;21445;-57
2021/11/02 13:29:57;;;;;;;20.40;12.40;;;;;;;13.89;87.94;100258.30;1753814;79;21483;-57
2021/11/02 13:33:06;;;;;;;20.07;12.00;;;;;;;13.91;88.11;100258.23;1756947;79;21059;-57
2021/11/02 13:35:57;;;;;;;19.37;12.03;;;;;;;13.92;88.29;100263.13;1757342;79;21017;-57
2021/11/02 13:38:35;;;;;;;17.35;10.80;;;;;;;13.89;88.58;100261.00;1760812;79;21119;-58
2021/11/02 13:41:24;;;;;;;18.82;12.00;;;;;;;13.93;88.79;100267.09;1726057;79;21161;-57
2021/11/02 13:43:57;;;;;;;19.82;12.07;;;;;;;13.91;88.90;100270.36;1759282;79;21138;-58
2021/11/02 13:46:25;;;;;;;19.48;12.70;;;;;;;13.90;89.13;100272.66;1756362;79;21163;-57
2021/11/02 13:48:53;;;;;;;17.00;12.13;;;;;;;13.88;89.15;100269.19;1761224;79;20885;-59
2021/11/02 13:51:23;;;;;;;20.92;12.40;;;;;;;13.84;89.32;100268.98;1767917;79;21080;-58
2021/11/02 13:53:50;;;;;;;18.73;12.25;;;;;;;13.81;89.44;100273.16;1750200;79;21150;-57
2021/11/02 13:56:20;;;;;;;18.75;13.05;;;;;;;13.76;89.61;100268.05;1814716;77;21133;-58
2021/11/02 13:58:48;;;;;;;19.48;12.78;;;;;;;13.73;89.91;100270.92;1815002;77;21019;-58
2021/11/02 14:01:27;;;;;;;21.57;13.38;;;;;;;13.70;90.08;100266.57;1812608;77;21003;-58
2021/11/02 14:04:23;;;;;;;21.12;12.90;;;;;;;13.68;90.29;100271.17;1779634;77;21073;-58
2021/11/02 14:07:02;;;;;;;17.65;12.60;;;;;;;13.69;90.39;100267.52;1812985;77;21116;-57
2021/11/02 14:09:33;;;;;;;21.05;13.32;;;;;;;13.69;90.61;100276.95;1819579;77;21539;-59
2021/11/02 14:12:20;;;;;;;21.70;13.13;;;;;;;13.69;90.75;100272.91;1817635;77;21479;-56
2021/11/02 14:14:47;;;;;;;18.07;12.10;;;;;;;13.69;90.91;100275.61;1773395;77;22592;-57
2021/11/02 14:17:20;;;;;;;19.98;12.73;;;;;;;13.71;91.02;100278.23;1816556;77;21124;-57
2021/11/02 14:19:51;;;;;;;19.15;12.90;;;;;;;13.75;91.09;100280.64;1819564;77;21606;-57
2021/11/02 14:22:52;;;;;;;21.75;13.40;;;;;;;13.74;91.10;100284.30;1819295;77;21127;-57
2021/11/02 14:25:33;;;;;;;19.37;13.05;;;;;;;13.74;91.29;100291.03;1821202;77;21542;-56
2021/11/02 14:28:00;;;;;;;21.75;13.13;;;;;;;13.78;91.53;100289.51;1793347;77;21125;-55
2021/11/02 14:30:43;;;;;;;24.27;13.83;;;;;;;13.79;91.59;100285.86;1823293;77;20993;-56
2021/11/02 14:33:12;;;;;;;20.12;13.05;;;;;;;13.79;91.71;100279.12;1819243;77;21033;-56
2021/11/02 14:35:53;;;;;;;19.12;12.82;;;;;;;13.77;91.71;100277.87;1823941;77;21479;-57
2021/11/02 14:38:29;;;;;;;19.67;12.78;;;;;;;13.72;91.70;100270.05;1823274;77;21341;-57
2021/11/02 14:40:58;;;;;;;22.48;13.80;;;;;;;13.68;92.00;100269.83;1816520;77;21376;-57
2021/11/02 14:43:32;;;;;;;21.25;13.00;;;;;;;13.65;92.20;100261.92;1812640;77;21086;-57
2021/11/02 14:46:05;;;;;;;19.07;12.93;;;;;;;13.63;92.45;100262.48;1819733;77;22175;-57
2021/11/02 14:48:41;;;;;;;19.73;13.45;;;;;;;13.60;92.70;100265.36;1820868;77;21603;-57
2021/11/02 14:51:25;;;;;;;20.10;12.30;;;;;;;13.57;93.09;100260.11;1821546;77;21034;-57
2021/11/02 14:53:52;;;;;;;19.65;12.37;;;;;;;13.60;93.42;100255.93;1821028;77;21530;-57
2021/11/02 14:56:30;;;;;;;20.23;13.13;;;;;;;13.65;93.62;100251.15;1818874;77;21089;-59
2021/11/02 14:59:07;;;;;;;20.17;11.97;;;;;;;13.69;93.59;100247.33;1824236;77;20927;-57
2021/11/02 15:01:44;;;;;;;19.98;12.47;;;;;;;13.73;93.56;100252.92;1814604;77;21110;-57
2021/11/02 15:04:20;;;;;;;20.23;12.35;;;;;;;13.78;93.71;100251.79;1823443;77;21106;-58
2021/11/02 15:06:57;;;;;;;17.40;12.20;;;;;;;13.82;93.66;100254.72;1809515;77;21586;-58
2021/11/02 15:09:27;;;;;;;18.27;12.68;;;;;;;13.82;93.61;100246.15;1793202;77;21133;-57
2021/11/02 15:11:54;;;;;;;18.67;11.57;;;;;;;13.80;93.73;100250.76;1777654;79;21037;-58
2021/11/02 15:14:24;;;;;;;19.45;12.55;;;;;;;13.81;94.01;100249.80;1798189;77;21141;-58
2021/11/02 15:16:55;;;;;;;21.17;12.47;;;;;;;13.83;94.08;100251.08;1795192;78;20998;-58
2021/11/02 15:19:24;;;;;;;20.85;13.28;;;;;;;13.80;94.14;100253.91;1797137;77;21098;-58
2021/11/02 15:22:04;;;;;;;16.62;12.28;;;;;;;13.81;94.41;100251.61;1776343;79;21085;-58
2021/11/02 15:24:37;;;;;;;18.07;11.95;;;;;;;13.87;94.57;100252.14;1791911;79;21017;-58
2021/11/02 15:27:20;;;;;;;17.02;12.58;;;;;;;13.94;94.43;100256.70;1792424;77;21702;-57
2021/11/02 15:29:53;;;;;;;16.45;11.43;;;;;;;13.97;94.27;100251.14;1795779;77;21061;-57
2021/11/02 15:32:22;;;;;;;19.73;11.83;;;;;;;13.98;94.25;100240.74;1798728;77;21023;-58
2021/11/02 15:34:57;;;;;;;18.00;11.33;;;;;;;14.01;94.20;100251.34;1796298;79;21006;-57
2021/11/02 15:37:33;;;;;;;21.60;12.23;;;;;;;14.06;93.98;100256.97;1798928;79;21516;-57
2021/11/02 15:40:05;;;;;;;16.93;11.57;;;;;;;14.10;93.94;100249.09;1795689;77;21852;-57
2021/11/02 15:42:38;;;;;;;16.82;10.90;;;;;;;14.14;93.88;100243.41;1751860;79;21497;-57
2021/11/02 15:45:35;;;;;;;17.07;11.12;;;;;;;14.20;93.57;100251.63;1795638;79;21117;-58
2021/11/02 15:48:10;;;;;;;15.28;10.98;;;;;;;14.21;93.42;100249.32;1796785;77;21114;-58
2021/11/02 15:50:48;;;;;;;17.70;10.95;;;;;;;14.25;93.40;100242.79;1796465;77;21082;-66
2021/11/02 15:53:25;;;;;;;14.70;10.72;;;;;;;14.27;93.20;100247.64;1800249;77;21653;-65
2021/11/02 15:56:02;;;;;;;17.67;9.90;;;;;;;14.31;93.08;100249.19;1807178;77;21002;-67
2021/11/02 15:58:30;;;;;;;16.65;9.53;;;;;;;14.35;92.87;100250.36;1797512;77;21650;-58
2021/11/02 16:00:57;;;;;;;13.80;9.38;;;;;;;14.37;92.54;100251.13;1793298;77;22128;-56
2021/11/02 16:03:32;;;;;;;12.58;9.15;;;;;;;14.39;92.35;100246.52;1790679;79;21067;-64
2021/11/02 16:06:03;;;;;;;11.85;9.15;;;;;;;14.40;92.00;100245.55;1801056;77;21593;-66
2021/11/02 16:08:31;;;;;;;17.35;9.65;;;;;;;14.35;91.96;100242.27;1787219;77;21074;-59
2021/11/02 16:11:07;;;;;;;15.68;8.50;;;;;;;14.28;92.12;100241.29;1812086;77;21088;-58
2021/11/02 16:13:38;;;;;;;13.10;8.98;;;;;;;14.24;92.36;100246.45;1814591;77;20868;-58
2021/11/02 16:16:05;;;;;;;12.75;8.63;;;;;;;14.20;92.55;100243.55;1813070;77;21055;-57
2021/11/02 16:18:34;;;;;;;15.32;8.10;;;;;;;14.14;93.05;100241.22;1809885;77;21975;-58
2021/11/02 16:21:03;;;;;;;11.38;8.08;;;;;;;14.13;93.46;100247.56;1810986;77;21044;-57
2021/11/02 16:23:47;;;;;;;13.30;7.85;;;;;;;14.14;93.56;100237.17;1816411;77;21055;-58
2021/11/02 16:26:21;;;;;;;13.85;8.23;;;;;;;14.12;93.80;100239.94;1811093;77;21084;-57